Latest Weather Observations for Mandora

IDW60801

Issued at 9:33 am WST Sunday 31 July 2016 (issued every 30 minutes, with the page automatically refreshed every 10 minutes)

About weather observations | Map of weather stations | Latest weather observations for WA | Other Formats
Station Details ID: 004019 Name: MANDORA Lat: -19.74 Lon: 120.84 Height: 7.5 m
Data from the previous 72 hours. | See also: Recent months at Mandora
Date/Time
WST
Temp
°C
App
Temp
°C
Dew
Point
°C
Rel
Hum
%
Delta-T
°C
Wind Press
QNH
hPa
Press
MSL
hPa
Rain since
9am
mm
Dir  Spd
km/h
Gust
km/h
Spd
kts
Gust
kts
31/09:30am 27.6 23.1 -6.7 10 14.2 E 9 13 5 7 1016.2 1016.1 0.0
31/09:00am 26.0 21.7 -4.5 13 13.0 ESE 9 17 5 9 1016.2 1016.1 0.0
31/08:30am 23.2 18.8 -2.4 18 11.1 ESE 11 17 6 9 1016.2 1016.1 0.0
31/08:00am 21.1 16.5 -4.1 18 10.3 SE 11 17 6 9 1015.9 1015.8 0.0
31/07:30am 17.2 13.1 -3.0 25 8.2 SE 9 13 5 7 1015.7 1015.6 0.0
31/07:00am 14.5 10.3 -3.8 28 7.1 SE 9 13 5 7 1015.4 1015.3 0.0
31/06:30am 13.5 9.3 -4.2 29 6.7 SSE 9 13 5 7 1015.1 1015.0 0.0
31/06:00am 13.7 9.1 -4.5 28 6.9 S 11 13 6 7 1014.8 1014.7 0.0
31/05:30am 13.3 9.1 -3.9 30 6.5 SSE 9 13 5 7 1014.6 1014.5 0.0
31/05:00am 13.7 9.2 -3.5 30 6.6 S 11 15 6 8 1014.4 1014.3 0.0
31/04:30am 14.7 10.3 -2.7 30 6.9 SSE 11 15 6 8 1014.4 1014.3 0.0
31/04:00am 16.0 11.2 -2.5 28 7.5 S 13 15 7 8 1014.5 1014.4 0.0
31/03:30am 15.8 11.1 -1.7 30 7.2 S 13 15 7 8 1014.3 1014.2 0.0
31/03:00am 16.3 11.7 -0.8 31 7.2 S 13 17 7 9 1014.5 1014.4 0.0
31/02:30am 16.3 11.8 -0.4 32 7.1 S 13 17 7 9 1014.6 1014.5 0.0
31/02:00am 15.9 12.0 0.9 36 6.5 S 11 15 6 8 1014.8 1014.7 0.0
31/01:30am 17.0 12.8 1.4 35 6.9 S 13 15 7 8 1015.0 1014.9 0.0
31/01:00am 15.2 11.1 2.4 42 5.7 SSW 13 15 7 8 1015.2 1015.1 0.0
31/12:30am 15.3 11.7 2.8 43 5.6 SSW 11 15 6 8 1015.2 1015.1 0.0
31/12:00am 17.1 13.1 2.7 38 6.5 S 13 17 7 9 1015.3 1015.2 0.0
 
Date/Time
WST
Temp
°C
App
Temp
°C
Dew
Point
°C
Rel
Hum
%
Delta-T
°C
Wind Press
QNH
hPa
Press
MSL
hPa
Rain since
9am
mm
Dir  Spd
km/h
Gust
km/h
Spd
kts
Gust
kts
30/11:30pm 16.6 12.7 3.3 41 6.1 S 13 15 7 8 1015.4 1015.3 0.0
30/11:00pm 16.1 12.3 3.9 44 5.6 S 13 15 7 8 1015.4 1015.3 0.0
30/10:30pm 16.8 13.4 4.2 43 5.9 SSW 11 13 6 7 1015.6 1015.5 0.0
30/10:00pm 17.7 14.1 5.0 43 6.1 SSW 13 15 7 8 1015.5 1015.4 0.0
30/09:30pm 18.0 15.0 5.9 45 5.9 SSW 11 15 6 8 1015.6 1015.5 0.0
30/09:00pm 18.2 14.8 5.8 44 6.1 SW 13 15 7 8 1015.6 1015.5 0.0
30/08:30pm 18.4 15.0 5.9 44 6.1 SW 13 15 7 8 1015.4 1015.3 0.0
30/08:00pm 18.9 15.6 6.4 44 6.2 SW 13 15 7 8 1015.2 1015.1 0.0
30/07:30pm 19.5 16.9 7.6 46 6.1 SW 11 13 6 7 1015.1 1015.0 0.0
30/07:00pm 19.6 17.1 8.3 48 5.9 WSW 11 13 6 7 1014.8 1014.7 0.0
30/06:30pm 20.8 18.4 8.8 46 6.3 WSW 11 13 6 7 1014.2 1014.1 0.0
30/06:00pm 22.2 20.5 8.3 41 7.3 W 7 9 4 5 1013.7 1013.6 0.0
30/05:30pm 24.8 23.1 8.3 35 8.8 WNW 7 9 4 5 1013.2 1013.1 0.0
30/05:00pm 26.9 24.3 6.3 27 10.8 NW 9 13 5 7 1012.9 1012.8 0.0
30/04:30pm 30.1 26.6 1.5 16 14.0 NNW 9 15 5 8 1012.6 1012.5 0.0
30/04:00pm 33.2 27.7 -9.2 6 17.8 ESE 13 20 7 11 1012.3 1012.2 0.0
30/03:30pm 33.2 27.4 -9.2 6 17.8 E 15 26 8 14 1012.3 1012.2 0.0
30/03:00pm 33.4 28.0 -9.0 6 17.8 E 13 24 7 13 1012.4 1012.3 0.0
30/02:30pm 33.2 27.1 -7.2 7 17.5 E 17 24 9 13 1012.5 1012.4 0.0
30/02:00pm 33.6 28.3 -6.9 7 17.7 E 13 24 7 13 1012.8 1012.7 0.0
30/01:30pm 33.4 27.6 -9.0 6 17.8 E 15 26 8 14 1013.3 1013.2 0.0
30/01:00pm 32.7 27.0 -7.6 7 17.2 E 15 26 8 14 1013.8 1013.7 0.0
30/12:30pm 32.5 26.2 -6.0 8 16.9 E 19 28 10 15 1014.4 1014.3 0.0
30/12:00pm 32.4 26.5 -6.0 8 16.8 E 17 28 9 15 1014.8 1014.7 0.0
30/11:30am 32.0 25.8 -4.8 9 16.4 E 19 32 10 17 1015.4 1015.3 0.0
30/11:00am 31.4 25.5 -5.2 9 16.1 E 17 28 9 15 1016.0 1015.9 0.0
30/10:30am 30.2 23.9 -6.1 9 15.6 E 19 30 10 16 1016.8 1016.7 0.0
30/10:00am 29.1 22.8 -5.6 10 14.9 E 19 32 10 17 1017.2 1017.1 0.0
30/09:30am 28.0 22.5 -5.2 11 14.2 E 15 28 8 15 1017.4 1017.3 0.0
30/09:00am 25.6 20.4 -2.9 15 12.5 E 15 24 8 13 1017.4 1017.3 0.0
30/08:30am 23.0 17.9 -1.8 19 10.8 ESE 15 20 8 11 1017.7 1017.6 0.0
30/08:00am 20.6 15.5 -1.8 22 9.6 SE 15 24 8 13 1017.8 1017.7 0.0
30/07:30am 18.2 13.4 -2.7 24 8.6 SE 13 20 7 11 1017.4 1017.3 0.0
30/07:00am 15.4 10.9 -3.5 27 7.4 SE 11 17 6 9 1017.1 1017.0 0.0
30/06:30am 14.4 9.5 -3.4 29 6.9 SE 13 17 7 9 1016.9 1016.8 0.0
30/06:00am 14.2 9.7 -3.1 30 6.8 SE 11 15 6 8 1016.7 1016.6 0.0
30/05:30am 13.9 9.4 -3.4 30 6.7 SE 11 17 6 9 1016.4 1016.3 0.0
30/05:00am 14.2 10.1 -3.1 30 6.8 SSE 9 13 5 7 1016.3 1016.2 0.0
30/04:30am 14.3 10.1 -3.5 29 6.9 SSE 9 13 5 7 1015.9 1015.8 0.0
30/04:00am 14.5 10.4 -3.3 29 6.9 SSE 9 11 5 6 1015.8 1015.7 0.0
30/03:30am 14.7 10.6 -3.1 29 7.0 SE 9 11 5 6 1015.8 1015.7 0.0
30/03:00am 15.0 10.9 -3.3 28 7.2 SSE 9 13 5 7 1015.9 1015.8 0.0
30/02:30am 16.0 11.1 -3.5 26 7.7 SSE 13 17 7 9 1016.0 1015.9 0.0
30/02:00am 16.5 11.6 -3.6 25 8.0 SSE 13 17 7 9 1016.0 1015.9 0.0
30/01:30am 15.7 11.6 -3.2 27 7.5 SSE 9 13 5 7 1016.3 1016.2 0.0
30/01:00am 15.9 11.4 -3.6 26 7.7 SSE 11 13 6 7 1016.3 1016.2 0.0
30/12:30am 16.2 12.1 -3.3 26 7.8 SSE 9 11 5 6 1016.3 1016.2 0.0
30/12:00am 15.4 11.4 -2.5 29 7.2 SE 9 11 5 6 1016.4 1016.3 0.0
 
Date/Time
WST
Temp
°C
App
Temp
°C
Dew
Point
°C
Rel
Hum
%
Delta-T
°C
Wind Press
QNH
hPa
Press
MSL
hPa
Rain since
9am
mm
Dir  Spd
km/h
Gust
km/h
Spd
kts
Gust
kts
29/11:30pm 17.4 13.3 -3.4 24 8.4 SE 9 11 5 6 1016.5 1016.4 0.0
29/11:00pm 18.6 14.4 -3.5 22 9.0 SE 9 13 5 7 1016.6 1016.5 0.0
29/10:30pm 18.3 14.3 -2.6 24 8.6 SSE 9 17 5 9 1016.8 1016.7 0.0
29/10:00pm 18.8 14.7 -2.7 23 8.9 SSE 9 13 5 7 1016.9 1016.8 0.0
29/09:30pm 18.6 14.0 -1.3 26 8.5 SSE 13 15 7 8 1017.0 1016.9 0.0
29/09:00pm 18.2 14.1 -0.1 29 7.9 S 11 13 6 7 1016.8 1016.7 0.0
29/08:30pm 18.2 14.2 0.8 31 7.7 SSW 11 11 6 6 1016.8 1016.7 0.0
29/08:00pm 18.8 15.1 2.2 33 7.6 SSW 11 11 6 6 1016.6 1016.5 0.0
29/07:30pm 19.5 16.0 3.6 35 7.5 SSW 11 13 6 7 1016.4 1016.3 0.0
29/07:00pm 20.1 16.7 4.2 35 7.6 SW 11 13 6 7 1016.0 1015.9 0.0
29/06:30pm 20.6 17.3 4.6 35 7.8 WSW 11 13 6 7 1015.5 1015.4 0.0
29/06:00pm 22.0 19.1 4.6 32 8.5 WSW 9 11 5 6 1015.1 1015.0 0.0
29/05:30pm 25.0 22.1 4.7 27 10.2 WNW 9 13 5 7 1014.8 1014.7 0.0
29/05:00pm 27.8 24.6 2.8 20 12.3 WNW 9 15 5 8 1014.6 1014.5 0.0
29/04:30pm 28.7 25.1 2.8 19 12.9 WNW 11 17 6 9 1014.4 1014.3 0.0
29/04:00pm 30.6 27.2 -0.9 13 14.9 NNW 7 15 4 8 1014.3 1014.2 0.0
29/03:30pm 32.2 27.2 -4.6 9 16.5 E 13 20 7 11 1014.2 1014.1 0.0
29/03:00pm 31.2 26.7 -6.9 8 16.3 ENE 9 19 5 10 1014.3 1014.2 0.0
29/02:30pm 31.5 26.4 -5.2 9 16.2 E 13 20 7 11 1014.6 1014.5 0.0
29/02:00pm 31.7 27.0 -5.0 9 16.3 ENE 11 24 6 13 1014.7 1014.6 0.0
29/01:30pm 31.9 26.5 -4.9 9 16.4 ESE 15 24 8 13 1015.0 1014.9 0.0
29/01:00pm 30.9 25.4 -5.6 9 15.9 ESE 15 28 8 15 1015.4 1015.3 0.0
29/12:30pm 30.9 25.1 -4.2 10 15.7 ESE 17 26 9 14 1016.0 1015.9 0.0
29/12:00pm 30.4 24.6 -4.6 10 15.4 E 17 28 9 15 1016.7 1016.6 0.0
29/11:30am 29.3 23.7 -3.0 12 14.6 E 17 28 9 15 1017.1 1017.0 0.0
29/11:00am 28.1 21.9 -2.9 13 13.8 E 20 37 11 20 1017.6 1017.5 0.0
29/10:30am 27.4 21.2 -3.4 13 13.6 E 20 33 11 18 1018.0 1017.9 0.0
29/10:00am 26.6 20.4 -3.1 14 13.0 E 20 33 11 18 1018.5 1018.4 0.0
29/09:30am 24.8 18.8 -2.7 16 12.0 E 19 30 10 16 1018.9 1018.8 0.0
29/09:00am 24.2 18.1 -2.4 17 11.6 E 20 41 11 22 1019.2 1019.1 0.0
29/08:30am 23.4 17.3 -2.2 18 11.1 E 20 37 11 20 1019.1 1019.0 0.0
29/08:00am 21.0 15.4 -2.8 20 10.0 ESE 17 30 9 16 1019.0 1018.9 0.0
29/07:30am 17.2 12.3 -3.0 25 8.2 ESE 13 22 7 12 1018.8 1018.7 0.0
29/07:00am 15.2 9.9 -3.6 27 7.3 ESE 15 20 8 11 1018.4 1018.3 0.0
29/06:30am 14.3 9.0 -3.9 28 7.0 SE 15 20 8 11 1018.3 1018.2 0.0
29/06:00am 14.0 9.4 -4.2 28 6.9 SE 11 15 6 8 1018.2 1018.1 0.0
29/05:30am 14.5 9.9 -4.2 27 7.2 SSE 11 13 6 7 1017.9 1017.8 0.0
29/05:00am 15.3 10.6 -4.6 25 7.6 SE 11 15 6 8 1017.4 1017.3 0.0
29/04:30am 15.2 10.5 -4.7 25 7.6 SE 11 15 6 8 1017.0 1016.9 0.0
29/04:00am 14.7 10.0 -4.6 26 7.3 SE 11 15 6 8 1017.0 1016.9 0.0
29/03:30am 14.0 9.7 -4.7 27 7.0 SE 9 13 5 7 1017.0 1016.9 0.0
29/03:00am 14.5 10.2 -4.7 26 7.3 SE 9 13 5 7 1017.1 1017.0 0.0
29/02:30am 14.6 9.9 -4.7 26 7.3 SE 11 15 6 8 1017.2 1017.1 0.0
29/02:00am 14.2 9.9 -5.0 26 7.2 SSE 9 13 5 7 1017.3 1017.2 0.0
29/01:30am 14.6 9.9 -5.2 25 7.4 SSE 11 15 6 8 1017.5 1017.4 0.0
29/01:00am 14.7 10.0 -5.1 25 7.4 SSE 11 15 6 8 1017.6 1017.5 0.0
29/12:30am 14.9 9.8 -4.9 25 7.5 SSE 13 17 7 9 1017.7 1017.6 0.0
29/12:00am 14.8 10.1 -5.0 25 7.5 SSE 11 15 6 8 1017.8 1017.7 0.0
 
Date/Time
WST
Temp
°C
App
Temp
°C
Dew
Point
°C
Rel
Hum
%
Delta-T
°C
Wind Press
QNH
hPa
Press
MSL
hPa
Rain since
9am
mm
Dir  Spd
km/h
Gust
km/h
Spd
kts
Gust
kts
28/11:30pm 15.4 10.3 -5.0 24 7.8 SSE 13 17 7 9 1017.9 1017.8 0.0
28/11:00pm 12.4 7.9 -3.4 33 6.0 SSE 11 13 6 7 1018.1 1018.0 0.0
28/10:30pm 11.0 7.5 -3.1 37 5.3 SE 6 7 3 4 1018.2 1018.1 0.0
28/10:00pm 12.5 9.7 -3.7 32 6.1 E 2 7 1 4 1018.3 1018.2 0.0
28/09:30pm 13.5 9.7 -3.7 30 6.6 SE 7 9 4 5 1018.2 1018.1 0.0
28/09:00pm 17.5 13.2 -5.0 21 8.7 SE 9 13 5 7 1018.3 1018.2 0.0
28/08:30pm 16.1 11.8 -4.4 24 8.0 SE 9 13 5 7 1018.2 1018.1 0.0
28/08:00pm 15.4 11.6 -3.5 27 7.4 SE 7 11 4 6 1018.0 1017.9 0.0
28/07:30pm 17.6 13.4 -4.3 22 8.7 SE 9 9 5 5 1017.7 1017.6 0.0
28/07:00pm 21.8 17.3 -6.8 14 11.2 SSE 9 13 5 7 1017.3 1017.2 0.0
28/06:30pm 21.8 17.0 -5.9 15 11.1 SSE 11 13 6 7 1017.0 1016.9 0.0
28/06:00pm 23.3 19.3 -5.7 14 11.8 SE 7 11 4 6 1016.5 1016.4 0.0
28/05:30pm 27.3 22.8 -6.9 10 14.1 SE 9 13 5 7 1016.1 1016.0 0.0
28/05:00pm 29.4 24.5 -6.7 9 15.2 SE 11 17 6 9 1015.8 1015.7 0.0
28/04:30pm 30.3 25.1 -6.1 9 15.7 SE 13 24 7 13 1015.6 1015.5 0.0
28/04:00pm 30.7 25.2 -5.8 9 15.8 SE 15 20 8 11 1015.6 1015.5 0.0
28/03:30pm 30.5 24.6 -5.9 9 15.7 SE 17 26 9 14 1015.6 1015.5 0.0
28/03:00pm 31.1 26.0 -5.5 9 16.0 ESE 13 26 7 14 1015.6 1015.5 0.0
28/02:30pm 31.1 25.6 -5.5 9 16.0 SE 15 26 8 14 1015.8 1015.7 0.0
28/02:00pm 31.4 25.5 -5.2 9 16.1 SE 17 32 9 17 1016.3 1016.2 0.0
28/01:30pm 31.7 26.6 -5.0 9 16.3 ESE 13 26 7 14 1016.6 1016.5 0.0
28/01:00pm 31.4 25.5 -5.2 9 16.1 E 17 26 9 14 1017.0 1016.9 0.0
28/12:30pm 31.1 25.6 -5.5 9 16.0 E 15 24 8 13 1017.5 1017.4 0.0
28/12:00pm 30.8 24.9 -5.7 9 15.8 E 17 28 9 15 1018.1 1018.0 0.0
28/11:30am 29.8 23.4 -6.4 9 15.4 E 19 35 10 19 1018.6 1018.5 0.0
28/11:00am 28.4 22.1 -6.1 10 14.6 E 19 37 10 20 1019.2 1019.1 0.0
28/10:30am 27.7 21.7 -6.6 10 14.3 E 17 30 9 16 1019.7 1019.6 0.0
28/10:00am 27.1 21.2 -5.9 11 13.8 E 17 28 9 15 1020.3 1020.2 0.0

Other Formats:

Comma delimited format used in spreadsheet applications
http://www.bom.gov.au/fwo/IDW60801/IDW60801.94200.axf

JavaScript Object Notation format (JSON) in row-major order
http://www.bom.gov.au/fwo/IDW60801/IDW60801.94200.json